New Preston, Connecticut
Current Conditions -  °F | °C
As of 5:45 AM on Monday 20 Oct 2014 (Local Time) from KOXC Reporting Station
Clear Clear  
Wind Chill:   Ceiling: Unl
Heat Index:   Visibility: 10mi
Dew Point: -4°   Wind: 0mph
Humidity: 75%   Direction: NA
Pressure: 30.06"   Gusts: NA
Location:  41.6879°N, 73.3378°W
Report Text: KOXC 200945Z 00000KT 10SM SKC 00/M04 A3006
Loading
Personal Weather Stations






























Interactive Weather Map
Tropical Storm Tracking
New forecast layout! Learn more

10-Day Weather Forecast

Advertisements
Track Severe Weather on mobile